createdAt,value
2018-06-24T00:00:12.171Z,55.91
2018-06-24T00:02:40.945Z,56.06
2018-06-24T00:05:09.680Z,55.37
2018-06-24T00:07:38.378Z,55.53
2018-06-24T00:10:07.139Z,55.34
2018-06-24T00:12:35.868Z,55.29
2018-06-24T00:15:05.301Z,55.08
2018-06-24T00:17:34.057Z,55.75
2018-06-24T00:20:02.894Z,55.76
2018-06-24T00:22:31.985Z,55.29
2018-06-24T00:25:00.749Z,55.41
2018-06-24T00:27:29.511Z,55.81
2018-06-24T00:29:58.282Z,55.58
2018-06-24T00:32:27.038Z,55.24
2018-06-24T00:34:55.787Z,55.25
2018-06-24T00:37:24.486Z,55.41
2018-06-24T00:39:53.210Z,55.89
2018-06-24T00:42:21.922Z,55.48
2018-06-24T00:44:50.663Z,55.98
2018-06-24T00:47:19.387Z,56.18
2018-06-24T00:49:48.144Z,56.32
2018-06-24T00:52:16.896Z,55.58
2018-06-24T00:54:45.625Z,55.47
2018-06-24T00:57:14.361Z,55.41
2018-06-24T00:59:54.277Z,56.04
2018-06-24T01:02:22.973Z,55.77
2018-06-24T01:04:51.718Z,55.50
2018-06-24T01:07:20.453Z,56.27
2018-06-24T01:09:49.244Z,55.62
2018-06-24T01:12:17.921Z,56.67
2018-06-24T01:14:46.697Z,56.74
2018-06-24T01:17:15.425Z,56.82
2018-06-24T01:19:44.215Z,57.60
2018-06-24T01:22:12.974Z,57.29
2018-06-24T01:24:41.702Z,57.84
2018-06-24T01:27:10.473Z,58.49
2018-06-24T01:29:39.185Z,57.75
2018-06-24T01:32:07.940Z,58.43
2018-06-24T01:34:36.652Z,58.48
2018-06-24T01:37:05.372Z,57.84
2018-06-24T01:39:34.084Z,57.51
2018-06-24T01:42:02.794Z,57.89
2018-06-24T01:44:31.571Z,58.57
2018-06-24T01:47:00.305Z,57.61
2018-06-24T01:49:29.075Z,58.15
2018-06-24T01:51:57.855Z,58.27
2018-06-24T01:54:26.626Z,57.49
2018-06-24T01:56:55.312Z,57.40
2018-06-24T01:59:24.150Z,58.34
2018-06-24T02:01:53.119Z,57.50
2018-06-24T02:04:22.069Z,58.71
2018-06-24T02:06:51.036Z,58.66
2018-06-24T02:09:19.831Z,58.19
2018-06-24T02:11:48.532Z,59.12
2018-06-24T02:14:17.272Z,59.43
2018-06-24T02:16:46.048Z,60.16
2018-06-24T02:19:14.763Z,60.00
2018-06-24T02:21:43.483Z,60.45
2018-06-24T02:24:12.184Z,60.17
2018-06-24T02:26:40.903Z,60.64
2018-06-24T02:29:09.651Z,61.62
2018-06-24T02:31:38.401Z,61.34
2018-06-24T02:34:07.182Z,61.75
2018-06-24T02:36:35.922Z,62.77
2018-06-24T02:39:06.630Z,62.27
2018-06-24T02:41:35.428Z,62.73
2018-06-24T02:44:04.572Z,62.71
2018-06-24T02:46:33.367Z,62.58
2018-06-24T02:49:02.110Z,63.04
2018-06-24T02:51:30.898Z,62.45
2018-06-24T02:53:59.619Z,62.19
2018-06-24T02:56:28.381Z,62.08
2018-06-24T02:58:57.136Z,62.19
2018-06-24T03:01:25.894Z,62.96
2018-06-24T03:03:54.712Z,62.07
2018-06-24T03:06:23.415Z,61.37
2018-06-24T03:08:52.113Z,62.05
2018-06-24T03:11:20.802Z,61.71
2018-06-24T03:13:49.515Z,61.85
2018-06-24T03:16:18.245Z,61.39
2018-06-24T03:18:46.923Z,61.59
2018-06-24T03:21:15.715Z,62.79
2018-06-24T03:23:44.434Z,61.98
2018-06-24T03:26:13.218Z,61.35
2018-06-24T03:28:41.958Z,61.78
2018-06-24T03:31:10.755Z,60.58
2018-06-24T03:33:39.584Z,60.68
2018-06-24T03:36:08.411Z,60.86
2018-06-24T03:38:37.142Z,61.28
2018-06-24T03:41:05.969Z,61.97
2018-06-24T03:43:34.712Z,62.10
2018-06-24T03:46:03.415Z,61.99
2018-06-24T03:48:32.115Z,61.51
2018-06-24T03:51:00.814Z,61.31
2018-06-24T03:53:29.520Z,60.96
2018-06-24T03:55:58.230Z,59.44
2018-06-24T03:58:26.923Z,59.49
2018-06-24T04:00:55.652Z,60.01
2018-06-24T04:03:24.436Z,59.68
2018-06-24T04:05:53.191Z,58.81
2018-06-24T04:08:21.943Z,59.29
2018-06-24T04:10:50.660Z,59.17
2018-06-24T04:13:19.447Z,58.37
2018-06-24T04:15:48.182Z,58.56
2018-06-24T04:18:16.943Z,57.54
2018-06-24T04:20:45.823Z,57.83
2018-06-24T04:23:14.686Z,58.10
2018-06-24T04:25:43.477Z,58.31
2018-06-24T04:28:12.324Z,57.33
2018-06-24T04:30:41.102Z,57.28
2018-06-24T04:33:09.855Z,57.26
2018-06-24T04:35:38.556Z,56.98
2018-06-24T04:38:07.267Z,56.63
2018-06-24T04:40:36.042Z,56.92
2018-06-24T04:43:04.778Z,57.31
2018-06-24T04:45:33.526Z,56.95
2018-06-24T04:48:02.200Z,56.20
2018-06-24T04:50:31.134Z,54.88
2018-06-24T04:52:59.834Z,52.12
2018-06-24T04:55:28.635Z,49.38
2018-06-24T04:57:57.347Z,46.87
2018-06-24T05:00:26.116Z,43.92
2018-06-24T05:02:54.807Z,42.27
2018-06-24T05:05:23.512Z,40.72
2018-06-24T05:07:52.270Z,40.24
2018-06-24T05:10:20.996Z,39.63
2018-06-24T05:12:49.666Z,38.73
2018-06-24T05:15:18.435Z,38.21
2018-06-24T05:17:47.147Z,38.47
2018-06-24T05:20:15.943Z,37.07
2018-06-24T05:22:44.727Z,37.08
2018-06-24T05:25:13.476Z,36.94
2018-06-24T05:27:42.232Z,36.73
2018-06-24T05:30:11.026Z,35.28
2018-06-24T05:32:39.766Z,34.98
2018-06-24T05:35:08.929Z,35.51
2018-06-24T05:41:04.394Z,36.42
2018-06-24T05:43:33.127Z,35.16
2018-06-24T05:46:01.861Z,35.83
2018-06-24T05:48:30.612Z,37.03
2018-06-24T05:50:59.359Z,36.51
2018-06-24T05:53:28.094Z,37.34
2018-06-24T05:55:57.168Z,37.53
2018-06-24T05:58:25.971Z,35.63
2018-06-24T06:00:55.153Z,36.17
2018-06-24T06:03:24.366Z,36.98
2018-06-24T06:05:53.127Z,38.55
2018-06-24T06:08:21.845Z,38.07
2018-06-24T06:10:50.582Z,39.69
2018-06-24T06:13:19.263Z,40.74
2018-06-24T06:15:48.034Z,40.96
2018-06-24T06:18:17.825Z,41.95
2018-06-24T06:20:46.631Z,41.10
2018-06-24T06:23:15.352Z,41.46
2018-06-24T06:25:44.436Z,41.47
2018-06-24T06:28:13.183Z,41.06
2018-06-24T06:30:42.061Z,40.25
2018-06-24T06:33:10.768Z,40.05
2018-06-24T06:35:39.480Z,41.23
2018-06-24T06:38:08.617Z,40.40
2018-06-24T06:40:37.319Z,40.69
2018-06-24T06:43:06.218Z,42.40
2018-06-24T06:45:35.037Z,42.25
2018-06-24T06:48:04.196Z,41.97
2018-06-24T06:50:32.910Z,43.24
2018-06-24T06:53:01.712Z,42.46
2018-06-24T06:55:30.476Z,42.02
2018-06-24T06:57:59.190Z,42.21
2018-06-24T07:00:27.965Z,42.35
2018-06-24T07:02:56.736Z,43.15
2018-06-24T07:05:25.493Z,42.59
2018-06-24T07:07:54.199Z,42.99
2018-06-24T07:10:22.994Z,42.21
2018-06-24T07:12:53.395Z,42.62
2018-06-24T07:15:22.215Z,42.28
2018-06-24T07:17:50.925Z,42.55
2018-06-24T07:20:19.663Z,41.82
2018-06-24T07:22:48.363Z,42.94
2018-06-24T07:25:17.154Z,41.25
2018-06-24T07:27:45.926Z,39.74
2018-06-24T07:30:14.870Z,40.44
2018-06-24T07:32:43.573Z,39.94
2018-06-24T07:35:12.360Z,40.65
2018-06-24T07:37:41.083Z,39.60
2018-06-24T07:40:09.803Z,40.62
2018-06-24T07:42:38.514Z,40.26
2018-06-24T07:45:07.222Z,39.63
2018-06-24T07:47:35.926Z,38.60
2018-06-24T07:50:05.128Z,37.95
2018-06-24T07:52:33.777Z,38.00
2018-06-24T07:55:02.529Z,37.64
2018-06-24T07:57:31.486Z,37.85
2018-06-24T08:00:00.250Z,37.79
2018-06-24T08:02:28.982Z,36.94
2018-06-24T08:04:57.714Z,35.15
2018-06-24T08:07:26.475Z,35.34
2018-06-24T08:09:55.190Z,35.76
2018-06-24T08:12:23.965Z,36.44
2018-06-24T08:14:52.654Z,37.21
2018-06-24T08:17:21.610Z,35.82
2018-06-24T08:19:50.415Z,37.44
2018-06-24T08:22:19.144Z,38.25
2018-06-24T08:24:47.864Z,36.58
2018-06-24T08:27:16.749Z,36.24
2018-06-24T08:29:45.528Z,37.05
2018-06-24T08:32:14.373Z,37.35
2018-06-24T08:34:43.111Z,36.77
2018-06-24T08:37:12.255Z,36.35
2018-06-24T08:39:41.220Z,37.19
2018-06-24T08:42:10.015Z,35.88
2018-06-24T08:44:38.726Z,35.13
2018-06-24T08:47:07.838Z,35.36
2018-06-24T08:49:36.771Z,35.78
2018-06-24T08:52:05.707Z,36.05
2018-06-24T08:54:34.408Z,35.36
2018-06-24T08:57:03.063Z,34.99
2018-06-24T08:59:31.842Z,36.55
2018-06-24T09:02:00.577Z,35.82
2018-06-24T09:04:29.367Z,36.06
2018-06-24T09:06:58.126Z,37.18
2018-06-24T09:09:27.085Z,36.74
2018-06-24T09:11:55.941Z,36.03
2018-06-24T09:14:24.719Z,36.66
2018-06-24T09:16:53.500Z,37.45
2018-06-24T09:19:22.288Z,38.36
2018-06-24T09:21:50.995Z,37.14
2018-06-24T09:24:19.729Z,36.72
2018-06-24T09:26:48.440Z,37.01
2018-06-24T09:29:17.126Z,35.52
2018-06-24T09:31:46.247Z,35.47
2018-06-24T09:34:14.993Z,35.60
2018-06-24T09:36:43.939Z,34.90
2018-06-24T09:39:13.503Z,35.06
2018-06-24T09:41:42.280Z,35.70
2018-06-24T09:44:11.083Z,35.08
2018-06-24T09:46:39.850Z,35.15
2018-06-24T09:49:08.585Z,37.32
2018-06-24T09:51:37.430Z,34.70
2018-06-24T09:54:06.513Z,35.35
2018-06-24T09:56:35.649Z,36.23
2018-06-24T09:59:04.426Z,35.50
2018-06-24T10:01:33.204Z,36.01
2018-06-24T10:04:02.244Z,35.19
2018-06-24T10:06:32.735Z,35.01
2018-06-24T10:09:01.592Z,35.29
2018-06-24T10:11:30.766Z,36.00
2018-06-24T10:13:59.650Z,35.48
2018-06-24T10:16:28.796Z,36.47
2018-06-24T10:18:57.570Z,36.06
2018-06-24T10:21:26.765Z,35.02
2018-06-24T10:23:55.789Z,35.97
2018-06-24T10:26:25.027Z,34.69
2018-06-24T10:28:53.963Z,34.62
2018-06-24T10:31:22.909Z,35.61
2018-06-24T10:33:59.066Z,36.39
2018-06-24T10:36:27.933Z,35.23
2018-06-24T10:38:56.827Z,34.06
2018-06-24T10:41:26.331Z,35.66
2018-06-24T10:43:55.091Z,34.95
2018-06-24T10:46:24.469Z,32.37
2018-06-24T10:48:53.215Z,32.44
2018-06-24T10:51:21.961Z,32.06
2018-06-24T10:53:50.875Z,33.14
2018-06-24T10:56:19.595Z,33.63
2018-06-24T10:58:48.420Z,32.70
2018-06-24T11:01:17.167Z,33.39
2018-06-24T11:03:45.926Z,32.23
2018-06-24T11:06:14.707Z,33.03
2018-06-24T11:08:43.536Z,33.32
2018-06-24T11:11:13.303Z,31.78
2018-06-24T11:13:48.587Z,31.82
2018-06-24T11:16:17.415Z,31.58
2018-06-24T11:18:46.130Z,31.06
2018-06-24T11:21:14.916Z,31.69
2018-06-24T11:23:43.666Z,32.13
2018-06-24T11:26:12.426Z,32.17
2018-06-24T11:28:41.117Z,32.78
2018-06-24T11:31:10.075Z,33.45
2018-06-24T11:33:38.836Z,33.83
2018-06-24T11:36:07.542Z,32.16
2018-06-24T11:38:36.269Z,32.57
2018-06-24T11:41:05.092Z,32.06
2018-06-24T11:43:33.912Z,32.09
2018-06-24T11:46:02.706Z,30.65
2018-06-24T11:48:31.445Z,30.02
2018-06-24T11:51:00.307Z,31.41
2018-06-24T11:53:35.462Z,31.67
2018-06-24T11:56:04.713Z,31.93
2018-06-24T11:58:33.746Z,32.68
2018-06-24T12:01:02.848Z,32.18
2018-06-24T12:03:31.630Z,32.39
2018-06-24T12:06:00.354Z,33.79
2018-06-24T12:08:29.055Z,33.71
2018-06-24T12:10:57.767Z,33.56
2018-06-24T12:13:26.544Z,33.57
2018-06-24T12:15:55.328Z,33.48
2018-06-24T12:18:24.038Z,32.70
2018-06-24T12:20:53.045Z,32.69
2018-06-24T12:23:21.742Z,32.99
2018-06-24T12:25:50.542Z,32.97
2018-06-24T12:28:19.263Z,32.24
2018-06-24T12:30:48.060Z,31.97
2018-06-24T12:33:17.201Z,33.29
2018-06-24T12:35:45.955Z,33.89
2018-06-24T12:38:14.780Z,32.61
2018-06-24T12:40:43.473Z,33.02
2018-06-24T12:43:12.181Z,32.35
2018-06-24T12:45:41.278Z,32.17
2018-06-24T12:48:10.000Z,32.49
2018-06-24T12:50:38.761Z,33.60
2018-06-24T12:53:07.542Z,32.55
2018-06-24T12:55:36.324Z,33.41
2018-06-24T12:58:05.120Z,31.90
2018-06-24T13:00:35.572Z,30.98
2018-06-24T13:03:03.984Z,31.36
2018-06-24T13:05:33.154Z,31.60
2018-06-24T13:08:02.198Z,32.33
2018-06-24T13:10:30.929Z,31.71
2018-06-24T13:13:00.016Z,30.50
2018-06-24T13:15:28.827Z,30.43
2018-06-24T13:17:57.494Z,30.88
2018-06-24T13:20:26.317Z,29.67
2018-06-24T13:22:55.922Z,30.22
2018-06-24T13:25:25.090Z,31.30
2018-06-24T13:27:53.834Z,30.82
2018-06-24T13:30:22.927Z,32.77
2018-06-24T13:32:51.667Z,31.48
2018-06-24T13:35:20.387Z,30.74
2018-06-24T13:37:49.066Z,30.79
2018-06-24T13:40:17.831Z,31.17
2018-06-24T13:42:46.910Z,30.47
2018-06-24T13:45:15.738Z,30.11
2018-06-24T13:47:44.424Z,30.21
2018-06-24T13:50:13.248Z,29.86
2018-06-24T13:52:41.954Z,30.44
2018-06-24T13:55:10.737Z,29.89
2018-06-24T13:57:39.506Z,29.32
2018-06-24T14:00:08.400Z,29.00
2018-06-24T14:02:37.082Z,29.91
2018-06-24T14:05:06.265Z,29.37
2018-06-24T14:07:35.041Z,30.32
2018-06-24T14:10:04.176Z,30.56
2018-06-24T14:12:32.884Z,30.43
2018-06-24T14:15:01.642Z,32.11
2018-06-24T14:17:30.377Z,32.58
2018-06-24T14:19:59.438Z,32.76
2018-06-24T14:22:28.264Z,33.43
2018-06-24T14:24:57.754Z,33.54
2018-06-24T14:27:26.595Z,32.57
2018-06-24T14:29:55.359Z,31.07
2018-06-24T14:32:24.092Z,30.76
2018-06-24T14:34:52.871Z,30.86
2018-06-24T14:37:21.848Z,30.85
2018-06-24T14:39:50.688Z,30.06
2018-06-24T14:42:19.827Z,30.15
2018-06-24T14:44:48.552Z,30.58
2018-06-24T14:47:17.349Z,29.89
2018-06-24T14:49:46.290Z,30.69
2018-06-24T14:52:15.016Z,30.38
2018-06-24T14:54:43.802Z,30.51
2018-06-24T14:57:12.930Z,30.33
2018-06-24T14:59:41.887Z,30.27
2018-06-24T15:02:10.630Z,30.24
2018-06-24T15:04:39.326Z,31.10
2018-06-24T15:07:08.238Z,29.78
2018-06-24T15:09:36.934Z,29.30
2018-06-24T15:12:05.747Z,29.14
2018-06-24T15:14:34.565Z,29.24
2018-06-24T15:17:03.313Z,28.88
2018-06-24T15:19:32.088Z,30.20
2018-06-24T15:22:00.830Z,29.33
2018-06-24T15:24:29.629Z,29.49
2018-06-24T15:26:58.456Z,30.67
2018-06-24T15:29:27.249Z,29.46
2018-06-24T15:31:56.060Z,29.40
2018-06-24T15:34:25.592Z,29.86
2018-06-24T15:36:54.639Z,29.80
2018-06-24T15:39:25.883Z,29.57
2018-06-24T15:41:54.751Z,29.25
2018-06-24T15:44:23.495Z,29.31
2018-06-24T15:46:53.351Z,30.54
2018-06-24T15:49:22.827Z,29.77
2018-06-24T15:51:51.558Z,29.30
2018-06-24T15:54:20.279Z,30.45
2018-06-24T15:56:49.451Z,31.39
2018-06-24T15:59:18.881Z,31.02
2018-06-24T16:01:47.626Z,31.32
2018-06-24T16:04:16.345Z,30.80
2018-06-24T16:06:45.222Z,30.92
2018-06-24T16:09:14.059Z,31.59
2018-06-24T16:11:42.780Z,30.04
2018-06-24T16:14:11.579Z,30.54
2018-06-24T16:16:40.757Z,29.94
2018-06-24T16:19:09.914Z,30.44
2018-06-24T16:21:38.659Z,29.95
2018-06-24T16:24:07.378Z,30.02
2018-06-24T16:26:36.089Z,33.99
2018-06-24T16:29:04.922Z,34.28
2018-06-24T16:31:33.667Z,34.84
2018-06-24T16:34:02.445Z,35.94
2018-06-24T16:36:31.208Z,36.08
2018-06-24T16:39:00.029Z,36.64
2018-06-24T16:41:28.780Z,36.58
2018-06-24T16:43:57.474Z,36.69
2018-06-24T16:46:26.289Z,37.48
2018-06-24T16:48:55.036Z,36.19
2018-06-24T16:51:23.755Z,36.44
2018-06-24T16:53:52.487Z,38.25
2018-06-24T16:56:21.219Z,38.46
2018-06-24T16:58:49.927Z,39.58
2018-06-24T17:01:18.660Z,39.84
2018-06-24T17:03:47.374Z,40.26
2018-06-24T17:06:16.289Z,39.81
2018-06-24T17:08:45.682Z,40.18
2018-06-24T17:11:14.470Z,40.95
2018-06-24T17:13:43.182Z,41.18
2018-06-24T17:16:11.940Z,41.48
2018-06-24T17:18:40.777Z,40.90
2018-06-24T17:21:09.869Z,42.08
2018-06-24T17:23:38.714Z,41.85
2018-06-24T17:26:07.600Z,41.99
2018-06-24T17:28:36.317Z,41.82
2018-06-24T17:31:05.113Z,41.77
2018-06-24T17:33:34.169Z,41.75
2018-06-24T17:36:02.881Z,41.12
2018-06-24T17:38:31.758Z,42.30
2018-06-24T17:41:00.553Z,42.16
2018-06-24T17:43:29.218Z,42.40
2018-06-24T17:45:58.044Z,41.74
2018-06-24T17:48:26.931Z,42.65
2018-06-24T17:50:55.654Z,42.38
2018-06-24T17:53:24.496Z,41.45
2018-06-24T17:55:53.500Z,42.25
2018-06-24T17:58:22.380Z,41.97
2018-06-24T18:00:51.124Z,42.17
2018-06-24T18:03:20.403Z,42.66
2018-06-24T18:05:49.116Z,42.02
2018-06-24T18:08:17.935Z,42.62
2018-06-24T18:10:46.981Z,42.51
2018-06-24T18:13:15.708Z,42.84
2018-06-24T18:15:44.461Z,42.88
2018-06-24T18:18:13.185Z,43.05
2018-06-24T18:20:41.886Z,43.35
2018-06-24T18:23:10.627Z,43.04
2018-06-24T18:25:39.343Z,43.39
2018-06-24T18:28:08.164Z,43.29
2018-06-24T18:30:37.078Z,42.85
2018-06-24T18:33:06.291Z,43.14
2018-06-24T18:35:35.207Z,42.89
2018-06-24T18:38:04.606Z,42.91
2018-06-24T18:40:33.348Z,43.31
2018-06-24T18:43:02.113Z,42.85
2018-06-24T18:45:31.021Z,42.81
2018-06-24T18:47:59.805Z,43.39
2018-06-24T18:50:28.523Z,43.72
2018-06-24T18:52:57.919Z,43.29
2018-06-24T18:55:26.672Z,43.10
2018-06-24T18:57:55.751Z,43.20
2018-06-24T19:00:24.548Z,44.19
2018-06-24T19:02:53.440Z,43.63
2018-06-24T19:05:22.432Z,43.97
2018-06-24T19:07:51.507Z,43.96
2018-06-24T19:10:20.341Z,43.95
2018-06-24T19:12:49.219Z,44.58
2018-06-24T19:15:18.080Z,44.69
2018-06-24T19:17:46.893Z,44.04
2018-06-24T19:20:16.028Z,44.06
2018-06-24T19:22:44.746Z,44.31
2018-06-24T19:25:13.549Z,45.56
2018-06-24T19:27:42.365Z,45.50
2018-06-24T19:30:11.140Z,45.47
2018-06-24T19:32:40.880Z,45.66
2018-06-24T19:35:09.751Z,44.77
2018-06-24T19:37:38.480Z,45.80
2018-06-24T19:40:13.781Z,45.52
2018-06-24T19:42:42.940Z,44.82
2018-06-24T19:45:11.704Z,44.47
2018-06-24T19:47:40.410Z,45.56
2018-06-24T19:50:09.406Z,44.85
2018-06-24T19:52:38.182Z,45.53
2018-06-24T19:55:07.051Z,45.34
2018-06-24T19:57:35.826Z,45.63
2018-06-24T20:00:06.233Z,45.75
2018-06-24T20:02:34.978Z,45.91
2018-06-24T20:05:03.768Z,46.10
2018-06-24T20:07:32.611Z,46.10
2018-06-24T20:10:01.355Z,47.58
2018-06-24T20:12:30.138Z,48.36
2018-06-24T20:14:58.843Z,48.68
2018-06-24T20:17:27.534Z,49.69
2018-06-24T20:19:56.321Z,49.39
2018-06-24T20:22:25.116Z,49.60
2018-06-24T20:24:53.845Z,49.54
2018-06-24T20:27:24.262Z,49.76
2018-06-24T20:29:53.141Z,50.51
2018-06-24T20:32:21.857Z,51.16
2018-06-24T20:34:50.627Z,50.31
2018-06-24T20:37:19.403Z,51.15
2018-06-24T20:39:48.110Z,50.31
2018-06-24T20:42:16.823Z,49.22
2018-06-24T20:44:45.561Z,50.66
2018-06-24T20:47:14.252Z,50.84
2018-06-24T20:49:42.978Z,52.29
2018-06-24T20:52:12.328Z,51.64
2018-06-24T20:54:41.604Z,51.77
2018-06-24T20:57:10.362Z,52.29
2018-06-24T20:59:39.111Z,52.37
2018-06-24T21:02:08.929Z,51.78
2018-06-24T21:04:37.722Z,51.57
2018-06-24T21:07:06.462Z,52.32
2018-06-24T21:09:35.196Z,52.63
2018-06-24T21:12:03.906Z,53.16
2018-06-24T21:14:32.655Z,53.65
2018-06-24T21:17:01.473Z,54.18
2018-06-24T21:19:30.174Z,54.47
2018-06-24T21:21:58.877Z,53.89
2018-06-24T21:24:32.969Z,53.76
2018-06-24T21:27:01.854Z,53.77
2018-06-24T21:29:30.575Z,53.52
2018-06-24T21:31:59.274Z,53.33
2018-06-24T21:34:28.062Z,53.71
2018-06-24T21:36:56.974Z,53.84
2018-06-24T21:39:26.024Z,55.52
2018-06-24T21:41:54.875Z,55.16
2018-06-24T21:44:23.610Z,55.15
2018-06-24T21:46:52.364Z,55.10
2018-06-24T21:49:21.422Z,54.77
2018-06-24T21:51:50.552Z,55.89
2018-06-24T21:54:19.501Z,55.66
2018-06-24T21:56:51.354Z,55.34
2018-06-24T21:59:20.208Z,55.84
2018-06-24T22:01:48.926Z,55.60
2018-06-24T22:04:17.752Z,55.79
2018-06-24T22:06:46.579Z,55.47
2018-06-24T22:09:15.393Z,54.58
2018-06-24T22:11:44.144Z,55.25
2018-06-24T22:14:12.862Z,55.08
2018-06-24T22:16:41.588Z,54.99
2018-06-24T22:19:10.559Z,56.04
2018-06-24T22:21:39.483Z,55.73
2018-06-24T22:24:08.291Z,55.00
2018-06-24T22:26:37.031Z,55.83
2018-06-24T22:29:06.763Z,56.21
2018-06-24T22:31:35.743Z,56.80
2018-06-24T22:34:04.477Z,56.65
2018-06-24T22:36:33.572Z,56.13
2018-06-24T22:39:02.516Z,56.22
2018-06-24T22:41:31.658Z,55.45
2018-06-24T22:44:00.383Z,55.95
2018-06-24T22:46:29.116Z,55.57
2018-06-24T22:48:57.834Z,55.30
2018-06-24T22:51:26.591Z,55.01
2018-06-24T22:53:55.315Z,54.77
2018-06-24T22:56:24.094Z,54.71
2018-06-24T22:59:04.259Z,55.42
2018-06-24T23:01:33.619Z,55.08
2018-06-24T23:04:02.305Z,56.00
2018-06-24T23:06:31.044Z,55.52
2018-06-24T23:08:59.823Z,55.25
2018-06-24T23:11:28.527Z,55.03
2018-06-24T23:13:57.283Z,54.82
2018-06-24T23:16:26.074Z,55.13
2018-06-24T23:18:55.117Z,55.69
2018-06-24T23:21:23.840Z,55.68
2018-06-24T23:23:52.653Z,55.51
2018-06-24T23:26:21.726Z,54.60
2018-06-24T23:28:50.464Z,55.72
2018-06-24T23:31:19.342Z,55.19
2018-06-24T23:33:48.577Z,55.08
2018-06-24T23:36:17.300Z,54.74
2018-06-24T23:38:46.031Z,55.49
2018-06-24T23:41:14.735Z,54.73
2018-06-24T23:43:43.541Z,54.19
2018-06-24T23:46:12.308Z,54.41
2018-06-24T23:48:41.143Z,54.78
2018-06-24T23:51:09.856Z,53.74
2018-06-24T23:53:38.553Z,53.70
2018-06-24T23:56:07.317Z,53.90
2018-06-24T23:58:36.061Z,53.94
